Time;durP1;ratioP1;P1;durP2;ratioP2;P2;SDS_P1;SDS_P2;PMS_P1;PMS_P2;Temp;Humidity;BMP_temperature;BMP_pressure;BME280_temperature;BME280_humidity;BME280_pressure;Samples;Min_cycle;Max_cycle;Signal;HPM_P1;HPM_P2
2022/03/07 00:00:26;;;;;;;25.48;17.60;;;;;;;-0.36;91.53;100918.88;5008095;28;20046;-74
2022/03/07 00:02:52;;;;;;;28.02;16.77;;;;;;;-0.34;92.27;100909.53;5008211;28;20030;-74
2022/03/07 00:05:18;;;;;;;21.02;14.63;;;;;;;-0.18;92.57;100911.22;5005268;28;20048;-73
2022/03/07 00:07:44;;;;;;;25.63;15.18;;;;;;;-0.35;92.06;100907.75;5006921;28;20155;-73
2022/03/07 00:10:10;;;;;;;23.75;14.52;;;;;;;-0.54;92.32;100906.81;5008090;28;20176;-72
2022/03/07 00:12:35;;;;;;;28.67;17.95;;;;;;;-0.36;92.10;100904.28;5005111;28;20085;-73
2022/03/07 00:15:01;;;;;;;20.13;13.95;;;;;;;-0.58;92.81;100898.84;5008686;28;20032;-72
2022/03/07 00:17:26;;;;;;;33.50;16.67;;;;;;;-0.60;92.78;100893.59;5005032;28;20061;-73
2022/03/07 00:19:52;;;;;;;25.38;17.63;;;;;;;-0.23;92.45;100895.53;5007783;28;20046;-73
2022/03/07 00:22:17;;;;;;;21.20;14.82;;;;;;;-0.28;92.75;100889.22;5006215;28;20039;-73
2022/03/07 00:24:43;;;;;;;22.40;15.68;;;;;;;-0.40;92.49;100881.75;5004585;28;20100;-73
2022/03/07 00:27:08;;;;;;;27.15;17.35;;;;;;;-0.11;92.32;100900.41;5006284;28;20038;-73
2022/03/07 00:29:34;;;;;;;24.38;16.13;;;;;;;-0.43;93.04;100884.16;5007737;28;20025;-73
2022/03/07 00:31:59;;;;;;;26.75;16.85;;;;;;;-0.07;92.64;100892.91;5005971;28;20042;-73
2022/03/07 00:34:25;;;;;;;25.08;17.33;;;;;;;-0.30;91.47;100888.28;5007472;28;20490;-73
2022/03/07 00:36:50;;;;;;;22.58;15.30;;;;;;;-0.20;91.46;100892.22;5005310;28;20042;-74
2022/03/07 00:39:16;;;;;;;20.33;14.35;;;;;;;0.18;91.28;100894.13;5006172;28;20441;-73
2022/03/07 00:41:42;;;;;;;23.73;16.60;;;;;;;0.11;90.81;100892.03;5007380;28;20057;-73
2022/03/07 00:44:07;;;;;;;21.70;16.58;;;;;;;-0.40;91.62;100888.59;5004258;28;20064;-72
2022/03/07 00:46:33;;;;;;;20.13;14.77;;;;;;;-0.55;92.34;100880.97;5007963;28;20056;-72
2022/03/07 00:48:58;;;;;;;21.58;13.98;;;;;;;-0.60;92.48;100867.84;5006591;28;20117;-73
2022/03/07 00:51:24;;;;;;;29.77;14.43;;;;;;;-0.09;92.37;100873.88;5007961;28;20026;-73
2022/03/07 00:53:50;;;;;;;23.38;13.73;;;;;;;-0.18;92.21;100877.69;5004824;28;20065;-73
2022/03/07 00:56:15;;;;;;;18.38;11.63;;;;;;;-0.08;90.92;100872.19;5004636;28;20052;-73
2022/03/07 00:58:41;;;;;;;15.13;10.82;;;;;;;-0.21;90.78;100860.38;5006121;28;20036;-73
2022/03/07 01:01:06;;;;;;;14.63;10.93;;;;;;;0.05;89.48;100874.59;5006886;28;20462;-71
2022/03/07 01:03:32;;;;;;;19.25;14.90;;;;;;;0.29;89.18;100868.84;5006720;28;20050;-72
2022/03/07 01:05:57;;;;;;;14.27;8.65;;;;;;;0.60;88.57;100866.03;5005577;28;20026;-72
2022/03/07 01:08:22;;;;;;;11.00;8.18;;;;;;;0.53;87.68;100867.44;5006965;28;20382;-72
2022/03/07 01:10:49;;;;;;;11.20;6.85;;;;;;;0.16;87.14;100860.53;5007749;28;20494;-73
2022/03/07 01:13:15;;;;;;;10.98;7.32;;;;;;;-0.33;87.80;100863.22;5007221;28;20489;-73
2022/03/07 01:15:40;;;;;;;10.95;5.93;;;;;;;-0.12;87.53;100849.63;5007431;28;20046;-73
2022/03/07 01:18:06;;;;;;;8.48;6.03;;;;;;;0.28;87.38;100849.00;5002832;28;20080;-72
2022/03/07 01:20:32;;;;;;;10.02;6.45;;;;;;;0.31;86.13;100859.50;5006981;28;20480;-73
2022/03/07 01:22:58;;;;;;;10.70;5.93;;;;;;;0.25;86.89;100857.47;5006027;28;20049;-73
2022/03/07 01:25:24;;;;;;;10.35;6.65;;;;;;;0.33;86.26;100845.84;5006322;28;20405;-73
2022/03/07 01:27:49;;;;;;;9.93;4.88;;;;;;;0.36;86.14;100837.38;5007769;28;20041;-73
2022/03/07 01:30:15;;;;;;;15.98;4.88;;;;;;;0.54;86.23;100842.50;5007027;28;20052;-73
2022/03/07 01:32:40;;;;;;;11.27;6.18;;;;;;;0.30;85.48;100840.50;5002862;28;20057;-73
2022/03/07 01:35:06;;;;;;;11.60;5.97;;;;;;;0.35;86.25;100828.75;5007890;28;20050;-73
2022/03/07 01:37:32;;;;;;;9.45;5.03;;;;;;;0.43;85.77;100820.47;5006372;28;20058;-73
2022/03/07 01:39:57;;;;;;;9.88;5.18;;;;;;;0.58;85.76;100821.19;5003817;28;20057;-72
2022/03/07 01:42:23;;;;;;;10.80;5.68;;;;;;;0.15;86.17;100827.78;5006826;28;20099;-73
2022/03/07 01:44:48;;;;;;;8.73;6.18;;;;;;;0.26;86.98;100833.47;5005736;28;20063;-73
2022/03/07 01:47:14;;;;;;;14.80;10.20;;;;;;;-0.05;88.04;100833.63;5004603;28;20049;-73
2022/03/07 01:49:40;;;;;;;11.48;6.57;;;;;;;0.04;88.10;100831.50;5006010;28;20127;-74
2022/03/07 01:52:07;;;;;;;11.15;6.40;;;;;;;0.13;87.77;100825.94;5004186;28;20553;-72
2022/03/07 01:54:33;;;;;;;12.98;7.13;;;;;;;0.18;87.46;100829.59;5005437;28;20482;-73
2022/03/07 01:56:58;;;;;;;16.85;7.38;;;;;;;0.02;87.66;100835.72;5007111;28;20037;-73
2022/03/07 01:59:26;;;;;;;14.15;9.90;;;;;;;0.27;87.37;100835.22;5005813;28;20081;-73
2022/03/07 02:01:53;;;;;;;12.50;7.60;;;;;;;0.36;87.36;100834.78;5006705;28;20040;-72
2022/03/07 02:04:19;;;;;;;10.48;6.05;;;;;;;0.24;87.08;100837.66;5004188;28;20130;-73
2022/03/07 02:06:46;;;;;;;15.93;7.45;;;;;;;0.29;86.90;100835.31;5007234;28;20456;-73
2022/03/07 02:09:12;;;;;;;11.55;7.72;;;;;;;0.11;86.90;100828.44;5005811;28;20153;-72
2022/03/07 02:11:38;;;;;;;12.70;7.15;;;;;;;0.32;86.42;100838.03;5007549;28;20121;-72
2022/03/07 02:14:12;;;;;;;11.90;7.43;;;;;;;0.33;86.31;100832.94;5005376;28;20057;-72
2022/03/07 02:16:38;;;;;;;13.55;7.50;;;;;;;0.21;86.57;100834.91;5005331;28;20173;-73
2022/03/07 02:19:03;;;;;;;12.13;7.68;;;;;;;-0.21;87.60;100842.34;5005219;28;20054;-73
2022/03/07 02:21:33;;;;;;;15.00;7.88;;;;;;;0.19;87.28;100839.13;5004457;28;20046;-73
2022/03/07 02:23:59;;;;;;;14.50;7.13;;;;;;;-0.61;88.37;100823.94;5003982;28;20112;-73
2022/03/07 02:26:24;;;;;;;10.10;7.82;;;;;;;-0.89;88.72;100827.66;5007016;28;20038;-73
2022/03/07 02:28:50;;;;;;;12.50;7.07;;;;;;;-0.55;88.81;100835.44;5004592;28;20097;-73
2022/03/07 02:31:18;;;;;;;16.27;7.88;;;;;;;-0.04;88.98;100835.44;5003792;28;20072;-73
2022/03/07 02:33:44;;;;;;;10.20;6.50;;;;;;;-0.45;88.72;100841.94;5004123;28;20058;-71
2022/03/07 02:36:10;;;;;;;14.70;9.43;;;;;;;-0.77;89.23;100842.84;5006835;28;20026;-74
2022/03/07 02:38:36;;;;;;;10.15;6.82;;;;;;;-0.71;89.37;100849.22;5005418;28;20088;-74
2022/03/07 02:41:01;;;;;;;11.73;6.63;;;;;;;-0.49;89.03;100847.78;5004221;28;20057;-73
2022/03/07 02:43:27;;;;;;;12.27;6.53;;;;;;;-0.48;88.80;100846.97;5005386;28;20460;-72
2022/03/07 02:45:54;;;;;;;8.68;6.50;;;;;;;-0.20;88.77;100838.06;5003997;28;20030;-72
2022/03/07 02:48:20;;;;;;;11.07;7.57;;;;;;;0.02;87.97;100830.56;5003831;28;20033;-72
2022/03/07 02:50:48;;;;;;;11.52;5.50;;;;;;;-0.82;88.38;100832.34;5006235;28;20517;-72
2022/03/07 02:53:14;;;;;;;9.13;4.95;;;;;;;-0.46;88.39;100832.47;5001368;28;20051;-72
2022/03/07 02:55:40;;;;;;;11.73;6.28;;;;;;;0.10;87.84;100837.00;5004989;28;20088;-72
2022/03/07 02:58:05;;;;;;;10.60;5.93;;;;;;;0.08;87.24;100848.03;5004636;28;20065;-73
2022/03/07 03:00:32;;;;;;;9.40;5.90;;;;;;;0.06;87.39;100842.81;5008236;28;20069;-72
2022/03/07 03:02:57;;;;;;;10.60;5.75;;;;;;;0.11;87.11;100843.03;5008151;28;20117;-72
2022/03/07 03:05:23;;;;;;;9.95;5.72;;;;;;;0.28;86.72;100846.41;5009612;28;20507;-72
2022/03/07 03:07:51;;;;;;;11.45;6.68;;;;;;;0.28;86.38;100838.69;5007891;28;20436;-72
2022/03/07 03:10:17;;;;;;;14.55;6.90;;;;;;;-0.03;86.62;100847.50;5007789;28;20057;-72
2022/03/07 03:12:43;;;;;;;8.85;5.32;;;;;;;0.09;87.29;100837.78;5008713;28;20293;-74
2022/03/07 03:15:09;;;;;;;10.65;5.88;;;;;;;0.34;86.67;100846.72;5009418;28;20140;-73
2022/03/07 03:17:37;;;;;;;8.80;5.95;;;;;;;0.17;86.63;100849.38;5009795;28;20030;-72
2022/03/07 03:20:05;;;;;;;13.05;7.07;;;;;;;-0.36;86.83;100854.44;5007975;28;20063;-73
2022/03/07 03:22:31;;;;;;;10.57;5.57;;;;;;;-0.28;87.42;100850.53;5006574;28;20042;-74
2022/03/07 03:24:56;;;;;;;14.68;6.18;;;;;;;0.15;86.91;100858.72;5007018;28;20049;-73
2022/03/07 03:27:21;;;;;;;9.68;5.95;;;;;;;-0.10;86.11;100861.78;5007783;28;20081;-73
2022/03/07 03:29:47;;;;;;;7.80;5.28;;;;;;;0.19;86.40;100858.09;5008436;28;20022;-75
2022/03/07 03:32:12;;;;;;;9.23;6.63;;;;;;;0.17;86.17;100851.06;4997768;28;20533;-73
2022/03/07 03:34:38;;;;;;;9.05;6.43;;;;;;;0.17;85.60;100851.97;5009243;28;20038;-75
2022/03/07 03:37:03;;;;;;;11.70;5.72;;;;;;;-0.09;86.33;100839.47;5005272;28;20038;-72
2022/03/07 03:39:29;;;;;;;10.95;7.70;;;;;;;-0.87;87.21;100841.50;5004818;28;20493;-73
2022/03/07 03:41:54;;;;;;;7.85;5.38;;;;;;;-0.97;88.22;100832.41;5004018;28;20417;-73
2022/03/07 03:44:20;;;;;;;11.60;7.20;;;;;;;-0.87;88.87;100849.22;5008216;28;20042;-74
2022/03/07 03:46:46;;;;;;;10.13;6.65;;;;;;;-0.61;87.72;100844.56;5008387;28;20513;-73
2022/03/07 03:49:11;;;;;;;10.77;5.75;;;;;;;-0.69;88.39;100849.31;5006393;28;20034;-73
2022/03/07 03:51:36;;;;;;;9.00;6.13;;;;;;;-0.85;88.78;100840.78;5003590;28;20041;-71
2022/03/07 03:54:02;;;;;;;9.15;5.47;;;;;;;-1.25;89.12;100842.03;5008814;28;20034;-73
2022/03/07 03:56:28;;;;;;;13.13;5.60;;;;;;;-1.01;89.42;100833.03;5006249;28;20046;-73
2022/03/07 03:58:53;;;;;;;10.85;6.93;;;;;;;-0.94;90.17;100847.13;5006835;28;20046;-73
2022/03/07 04:01:19;;;;;;;14.73;8.55;;;;;;;-0.61;89.75;100841.97;5008347;28;20038;-73
2022/03/07 04:03:44;;;;;;;8.82;6.50;;;;;;;-0.88;89.82;100845.78;5004833;28;20049;-73
2022/03/07 04:06:10;;;;;;;10.60;6.47;;;;;;;-1.20;90.84;100841.47;5006536;28;20029;-73
2022/03/07 04:08:41;;;;;;;11.48;7.93;;;;;;;-1.18;91.16;100839.88;5010368;28;20042;-73
2022/03/07 04:11:07;;;;;;;10.48;5.97;;;;;;;-1.02;90.91;100838.13;5006217;28;20073;-72
2022/03/07 04:13:32;;;;;;;9.05;6.20;;;;;;;-1.22;90.82;100825.03;5002839;28;20076;-72
2022/03/07 04:15:58;;;;;;;8.40;5.45;;;;;;;-1.17;90.72;100823.63;5006854;28;20077;-72
2022/03/07 04:18:23;;;;;;;9.43;6.75;;;;;;;-0.95;90.30;100819.63;5005828;28;20517;-73
2022/03/07 04:20:49;;;;;;;12.32;6.93;;;;;;;-1.27;91.22;100811.03;5008694;28;20469;-73
2022/03/07 04:23:20;;;;;;;9.65;6.68;;;;;;;-1.42;91.53;100825.69;5004459;28;20386;-74
2022/03/07 04:25:47;;;;;;;11.90;5.97;;;;;;;-1.47;92.35;100809.09;5008965;28;20045;-73
2022/03/07 04:28:13;;;;;;;12.48;6.00;;;;;;;-1.56;92.52;100818.06;5004244;28;20100;-73
2022/03/07 04:30:38;;;;;;;9.43;5.45;;;;;;;-1.48;92.80;100815.91;5002251;28;20042;-73
2022/03/07 04:33:04;;;;;;;10.63;6.45;;;;;;;-1.58;92.92;100799.09;5007344;28;20032;-74
2022/03/07 04:35:29;;;;;;;13.43;6.38;;;;;;;-1.45;92.82;100815.19;5006404;28;20050;-72
2022/03/07 04:37:55;;;;;;;13.80;6.70;;;;;;;-1.60;92.79;100799.81;5004817;28;20088;-73
2022/03/07 04:40:20;;;;;;;15.63;7.85;;;;;;;-1.66;93.04;100797.81;5007430;28;20045;-73
2022/03/07 04:42:46;;;;;;;12.82;6.20;;;;;;;-1.57;93.21;100800.88;5005984;28;20409;-71
2022/03/07 04:45:12;;;;;;;12.43;7.95;;;;;;;-1.62;93.32;100804.88;5007272;28;20028;-73
2022/03/07 04:47:38;;;;;;;10.93;6.85;;;;;;;-1.64;93.18;100800.44;5008253;28;20034;-73
2022/03/07 04:50:05;;;;;;;10.98;6.28;;;;;;;-1.64;92.97;100810.72;5007308;28;20408;-72
2022/03/07 04:52:32;;;;;;;22.52;6.53;;;;;;;-1.57;92.81;100815.41;5003067;28;20030;-74
2022/03/07 04:54:57;;;;;;;12.40;5.82;;;;;;;-1.59;92.39;100804.16;5007336;28;20054;-73
2022/03/07 04:57:22;;;;;;;11.00;6.35;;;;;;;-1.49;92.33;100797.03;5006918;28;20048;-72
2022/03/07 04:59:48;;;;;;;11.30;7.00;;;;;;;-1.42;92.03;100810.25;5006048;28;20041;-73
2022/03/07 05:02:13;;;;;;;13.98;5.90;;;;;;;-1.68;92.39;100799.41;5006244;28;20778;-75
2022/03/07 05:04:40;;;;;;;9.48;6.68;;;;;;;-1.47;92.70;100809.09;5004799;28;20049;-73
2022/03/07 05:07:06;;;;;;;9.20;6.28;;;;;;;-1.60;92.46;100813.56;5005097;28;20046;-74
2022/03/07 05:09:32;;;;;;;12.95;6.80;;;;;;;-1.36;92.40;100813.13;5007160;28;20099;-74
2022/03/07 05:11:58;;;;;;;11.05;6.32;;;;;;;-1.39;91.64;100807.81;5005434;28;20026;-72
2022/03/07 05:14:23;;;;;;;11.30;5.95;;;;;;;-1.43;92.11;100791.31;5006901;28;20140;-74
2022/03/07 05:16:49;;;;;;;10.60;5.75;;;;;;;-1.33;91.79;100790.16;5007529;28;20068;-73
2022/03/07 05:19:14;;;;;;;10.93;5.32;;;;;;;-1.53;91.99;100805.38;5005179;28;20489;-74
2022/03/07 05:21:41;;;;;;;11.48;6.47;;;;;;;-1.33;92.16;100806.47;5005264;28;20046;-72
2022/03/07 05:24:07;;;;;;;13.45;8.05;;;;;;;-1.27;91.62;100799.06;5003774;28;20037;-75
2022/03/07 05:26:33;;;;;;;13.30;6.82;;;;;;;-1.15;91.39;100797.94;5007635;28;20041;-74
2022/03/07 05:28:59;;;;;;;17.67;6.53;;;;;;;-1.36;91.49;100811.47;5004490;28;20045;-72
2022/03/07 05:31:24;;;;;;;11.35;7.10;;;;;;;-1.21;91.06;100793.38;4997136;28;20042;-72
2022/03/07 05:33:50;;;;;;;10.45;5.75;;;;;;;-1.43;91.70;100801.59;5007269;28;20049;-74
2022/03/07 05:36:15;;;;;;;12.30;7.75;;;;;;;-1.53;91.86;100789.06;5005004;28;20034;-73
2022/03/07 05:38:41;;;;;;;10.02;6.88;;;;;;;-1.45;92.04;100802.31;5005617;28;20061;-74
2022/03/07 05:41:06;;;;;;;9.85;7.15;;;;;;;-1.47;92.26;100801.38;5004149;28;20073;-74
2022/03/07 05:43:32;;;;;;;8.73;5.43;;;;;;;-1.68;92.29;100783.09;5002263;28;20058;-74
2022/03/07 05:45:57;;;;;;;9.07;6.90;;;;;;;-1.64;92.56;100803.00;5005330;28;20061;-74
2022/03/07 05:48:23;;;;;;;10.93;5.90;;;;;;;-1.65;92.52;100804.69;5005437;28;20449;-74
2022/03/07 05:50:48;;;;;;;8.82;5.78;;;;;;;-1.63;92.82;100797.09;5003918;28;20451;-74
2022/03/07 05:53:14;;;;;;;15.85;6.70;;;;;;;-1.57;92.67;100800.88;5005562;28;20159;-74
2022/03/07 05:55:41;;;;;;;13.88;7.68;;;;;;;-1.29;92.62;100811.00;5002509;28;20548;-73
2022/03/07 05:58:07;;;;;;;11.65;6.55;;;;;;;-1.35;92.16;100810.66;5005865;28;20068;-74
2022/03/07 06:00:32;;;;;;;14.63;8.48;;;;;;;-1.23;92.07;100792.41;5003673;28;20533;-74
2022/03/07 06:02:58;;;;;;;8.60;5.93;;;;;;;-1.46;91.76;100804.03;5005665;28;20100;-74
2022/03/07 06:05:23;;;;;;;13.38;6.13;;;;;;;-1.39;91.74;100808.69;5006190;28;20045;-73
2022/03/07 06:07:49;;;;;;;12.27;6.97;;;;;;;-1.38;91.93;100804.44;5004894;28;20049;-73
2022/03/07 06:10:14;;;;;;;8.60;6.18;;;;;;;-1.41;91.59;100805.16;5007706;28;20080;-75
2022/03/07 06:12:41;;;;;;;11.70;6.75;;;;;;;-1.16;91.37;100802.22;5004279;28;20494;-73
2022/03/07 06:15:07;;;;;;;10.90;5.90;;;;;;;-1.36;91.72;100811.47;5006362;28;20038;-74
2022/03/07 06:17:34;;;;;;;10.15;5.90;;;;;;;-1.37;91.16;100798.50;5006627;28;20517;-73
2022/03/07 06:20:00;;;;;;;17.52;9.05;;;;;;;-1.33;91.58;100803.03;5003315;28;20555;-74
2022/03/07 06:22:26;;;;;;;11.40;7.47;;;;;;;-1.13;91.65;100804.94;5003877;28;20125;-74
2022/03/07 06:24:52;;;;;;;11.57;7.47;;;;;;;-1.39;91.13;100812.97;5006494;28;20189;-74
2022/03/07 06:27:17;;;;;;;20.55;10.48;;;;;;;-1.39;91.32;100802.66;5004394;28;20478;-72
2022/03/07 06:29:43;;;;;;;10.50;7.30;;;;;;;-1.36;90.65;100802.81;5007066;28;20037;-73
2022/03/07 06:32:09;;;;;;;11.68;7.35;;;;;;;-1.37;90.36;100803.66;5000326;28;20545;-73
2022/03/07 06:34:34;;;;;;;10.30;5.65;;;;;;;-1.13;89.98;100804.94;5004781;28;20145;-73
2022/03/07 06:37:00;;;;;;;10.20;6.28;;;;;;;-1.26;89.87;100810.25;5008655;28;20037;-73
2022/03/07 06:39:27;;;;;;;10.55;6.88;;;;;;;-1.26;90.35;100815.41;5007771;28;20073;-73
2022/03/07 06:41:56;;;;;;;12.57;9.15;;;;;;;-1.27;89.77;100798.19;5011019;28;20088;-73
2022/03/07 06:44:25;;;;;;;15.73;7.75;;;;;;;-1.15;89.77;100805.66;5008793;28;20065;-73
2022/03/07 06:46:50;;;;;;;13.50;6.15;;;;;;;-0.97;89.82;100803.19;5010873;28;20042;-73
2022/03/07 06:49:16;;;;;;;13.38;6.65;;;;;;;-1.27;89.96;100806.78;5007446;28;20274;-73
2022/03/07 06:51:41;;;;;;;12.15;6.72;;;;;;;-1.09;90.15;100814.63;5008812;28;20041;-72
2022/03/07 06:54:07;;;;;;;12.90;7.93;;;;;;;-0.89;89.13;100807.03;5008776;28;20054;-73
2022/03/07 06:56:33;;;;;;;9.27;5.47;;;;;;;-1.22;89.17;100806.16;5005443;28;20100;-73
2022/03/07 06:58:59;;;;;;;9.90;6.28;;;;;;;-1.03;89.42;100798.63;5010250;28;20045;-73
2022/03/07 07:01:25;;;;;;;9.13;4.80;;;;;;;-1.11;89.38;100805.91;5010234;28;20037;-73
2022/03/07 07:03:50;;;;;;;12.32;6.80;;;;;;;-0.93;89.61;100789.69;5008200;28;20441;-73
2022/03/07 07:06:16;;;;;;;11.68;6.07;;;;;;;-1.02;88.84;100804.66;5005462;28;20470;-73
2022/03/07 07:08:41;;;;;;;12.30;5.95;;;;;;;-0.83;89.26;100796.19;5008862;28;20042;-73
2022/03/07 07:11:07;;;;;;;9.00;6.40;;;;;;;-0.83;88.39;100802.22;5007933;28;20053;-73
2022/03/07 07:13:32;;;;;;;11.07;6.32;;;;;;;-0.80;88.83;100793.75;5009538;28;20497;-75
2022/03/07 07:15:58;;;;;;;13.88;6.80;;;;;;;-0.85;88.40;100781.53;5009408;28;20219;-79
2022/03/07 07:18:24;;;;;;;13.50;7.47;;;;;;;-0.76;88.06;100780.25;5005805;28;20451;-75
2022/03/07 07:20:51;;;;;;;6.50;4.93;;;;;;;-0.95;87.95;100781.84;5007557;28;20034;-75
2022/03/07 07:23:25;;;;;;;9.55;5.80;;;;;;;-0.68;88.19;100789.22;5007582;28;20045;-75
2022/03/07 07:25:50;;;;;;;14.00;7.03;;;;;;;-0.69;88.53;100788.34;5007699;28;20054;-75
2022/03/07 07:28:16;;;;;;;11.35;7.65;;;;;;;-0.82;87.63;100782.50;5007265;28;20433;-74
2022/03/07 07:30:42;;;;;;;9.55;6.00;;;;;;;-0.80;88.21;100796.34;5003694;28;20367;-75
2022/03/07 07:33:09;;;;;;;32.80;16.17;;;;;;;-0.49;87.85;100781.66;5005475;28;20026;-72
2022/03/07 07:35:36;;;;;;;20.70;10.20;;;;;;;-0.27;87.43;100800.75;5007003;28;20033;-75
2022/03/07 07:38:02;;;;;;;18.92;12.80;;;;;;;-0.71;87.84;100796.81;5008274;28;20431;-82
2022/03/07 07:40:28;;;;;;;21.35;14.05;;;;;;;-0.81;88.29;100790.31;5007202;28;20054;-78
2022/03/07 07:42:53;;;;;;;30.88;16.45;;;;;;;-0.72;88.30;100802.78;5008547;28;20072;-78
2022/03/07 07:45:19;;;;;;;19.60;11.60;;;;;;;-0.66;88.28;100804.00;5007401;28;20053;-78
2022/03/07 07:47:45;;;;;;;14.48;8.35;;;;;;;-0.49;88.26;100801.38;5008038;28;20038;-80
2022/03/07 07:50:10;;;;;;;9.30;6.50;;;;;;;-0.62;87.33;100801.56;5006765;28;20514;-77
2022/03/07 07:52:36;;;;;;;13.48;7.70;;;;;;;-0.75;87.41;100784.56;5007227;28;20034;-79
2022/03/07 07:55:04;;;;;;;22.25;10.10;;;;;;;-0.47;87.14;100794.59;5006214;28;20125;-77
2022/03/07 07:57:31;;;;;;;22.92;11.23;;;;;;;-0.32;86.28;100789.34;5008724;28;20487;-77
2022/03/07 07:59:56;;;;;;;12.63;9.45;;;;;;;-0.25;85.65;100794.88;5008563;28;20030;-77
2022/03/07 08:02:22;;;;;;;11.55;6.95;;;;;;;-0.01;84.28;100768.50;4992545;28;20045;-78
2022/03/07 08:04:47;;;;;;;13.25;8.32;;;;;;;-0.19;85.41;100780.50;5008685;28;20038;-76
2022/03/07 08:07:13;;;;;;;12.38;7.85;;;;;;;-0.36;83.97;100777.09;5004688;28;20042;-76
2022/03/07 08:09:38;;;;;;;12.02;9.10;;;;;;;0.18;84.12;100785.75;5008248;28;20121;-77
2022/03/07 08:12:04;;;;;;;16.15;8.18;;;;;;;-0.10;84.09;100770.63;5008287;28;20092;-76
2022/03/07 08:14:30;;;;;;;13.20;7.07;;;;;;;-0.22;84.53;100776.97;4997858;28;20167;-80
2022/03/07 08:16:55;;;;;;;13.18;7.90;;;;;;;0.25;84.25;100764.59;5003697;28;20050;-78
2022/03/07 08:19:21;;;;;;;15.00;8.23;;;;;;;0.00;83.90;100770.28;5006046;28;20120;-73
2022/03/07 08:21:46;;;;;;;16.08;9.10;;;;;;;0.45;83.55;100773.28;5004912;28;20406;-75
2022/03/07 08:24:11;;;;;;;11.35;7.60;;;;;;;-0.03;83.19;100760.69;5005941;28;20489;-75
2022/03/07 08:26:38;;;;;;;9.57;7.15;;;;;;;0.12;84.86;100762.25;5005635;28;20037;-77
2022/03/07 08:29:04;;;;;;;15.13;8.13;;;;;;;0.02;84.96;100768.63;5007257;28;20038;-72
2022/03/07 08:31:30;;;;;;;12.48;7.32;;;;;;;-0.36;84.95;100754.78;5013331;28;20053;-72
2022/03/07 08:33:55;;;;;;;16.85;8.45;;;;;;;-0.14;84.86;100760.97;5010252;28;20046;-75
2022/03/07 08:36:21;;;;;;;19.20;11.77;;;;;;;-0.12;85.20;100760.22;5005115;28;20124;-72
2022/03/07 08:38:46;;;;;;;15.57;7.65;;;;;;;0.00;83.68;100762.56;5005342;28;20029;-74
2022/03/07 08:41:12;;;;;;;19.58;13.00;;;;;;;0.33;84.67;100765.84;5036747;28;20450;-74
2022/03/07 08:43:38;;;;;;;9.95;6.75;;;;;;;0.18;84.18;100753.06;5005211;28;20049;-73
2022/03/07 08:46:03;;;;;;;10.13;6.43;;;;;;;-0.26;84.46;100769.91;5007119;28;20038;-73
2022/03/07 08:48:29;;;;;;;10.02;6.53;;;;;;;-0.22;84.21;100761.50;4988389;28;20052;-72
2022/03/07 08:50:55;;;;;;;9.25;6.53;;;;;;;-0.20;84.44;100769.31;5006425;28;20033;-74
2022/03/07 08:53:21;;;;;;;9.85;7.10;;;;;;;-0.27;84.29;100752.66;5006804;28;20072;-75
2022/03/07 08:55:46;;;;;;;10.50;6.93;;;;;;;-0.15;84.68;100759.22;5007940;28;20071;-72
2022/03/07 08:58:12;;;;;;;15.85;8.82;;;;;;;0.08;83.80;100763.78;5004377;28;20038;-74
2022/03/07 09:00:38;;;;;;;9.43;6.53;;;;;;;-0.06;83.78;100767.41;5005100;28;20048;-75
2022/03/07 09:03:06;;;;;;;10.20;6.30;;;;;;;-0.20;84.46;100758.13;5005499;28;20104;-75
2022/03/07 09:05:32;;;;;;;12.15;6.15;;;;;;;0.68;82.42;100765.66;5006303;28;20057;-75
2022/03/07 09:07:57;;;;;;;11.70;7.50;;;;;;;0.44;82.36;100752.53;5004914;28;20046;-74
2022/03/07 09:10:23;;;;;;;9.25;6.00;;;;;;;0.91;80.67;100754.69;5008044;28;20049;-73
2022/03/07 09:12:50;;;;;;;10.02;6.65;;;;;;;1.28;78.56;100764.03;5010740;28;20487;-75
2022/03/07 09:15:15;;;;;;;10.18;7.30;;;;;;;0.96;80.46;100753.19;5006473;28;20377;-74
2022/03/07 09:17:42;;;;;;;14.20;7.72;;;;;;;0.82;79.65;100756.88;5004513;28;20025;-71
2022/03/07 09:20:08;;;;;;;12.75;6.80;;;;;;;1.16;77.53;100768.69;5004733;28;20049;-74
2022/03/07 09:22:35;;;;;;;11.70;6.35;;;;;;;1.64;78.43;100758.69;5006437;28;20052;-74
2022/03/07 09:25:02;;;;;;;12.50;6.88;;;;;;;1.17;77.98;100763.59;5004628;28;20050;-74
2022/03/07 09:27:28;;;;;;;9.57;6.25;;;;;;;0.69;79.22;100750.25;5006591;28;20406;-73
2022/03/07 09:29:53;;;;;;;14.07;9.30;;;;;;;0.83;79.95;100750.88;5000993;28;20042;-71
2022/03/07 09:32:19;;;;;;;26.98;12.48;;;;;;;1.07;79.35;100740.72;4999499;28;20038;-73
2022/03/07 09:34:45;;;;;;;12.25;7.35;;;;;;;0.99;80.58;100740.41;5005424;28;20046;-72
2022/03/07 09:37:10;;;;;;;12.35;5.68;;;;;;;1.33;78.01;100748.72;5006238;28;20119;-73
2022/03/07 09:39:36;;;;;;;14.13;10.35;;;;;;;1.47;78.44;100751.09;5000162;28;20046;-72
2022/03/07 09:42:02;;;;;;;13.57;9.73;;;;;;;1.64;77.63;100731.09;5006635;28;20088;-74
2022/03/07 09:44:28;;;;;;;11.93;7.18;;;;;;;1.70;78.06;100727.88;5005937;28;20123;-73
2022/03/07 09:46:58;;;;;;;10.95;8.07;;;;;;;2.00;77.49;100740.28;5005384;28;20079;-73
2022/03/07 09:49:24;;;;;;;10.85;6.57;;;;;;;1.89;75.68;100734.66;5005983;28;20131;-73
2022/03/07 09:51:50;;;;;;;19.05;13.07;;;;;;;1.61;78.00;100728.38;5003716;28;20049;-74
2022/03/07 09:54:16;;;;;;;19.13;10.45;;;;;;;1.56;78.03;100737.66;5002735;28;20026;-74
2022/03/07 09:56:41;;;;;;;13.43;9.10;;;;;;;1.14;79.04;100731.56;5005899;28;20037;-75
2022/03/07 09:59:07;;;;;;;14.20;10.85;;;;;;;1.09;79.32;100740.81;5005262;28;20046;-72
2022/03/07 10:01:33;;;;;;;11.77;7.05;;;;;;;1.05;77.83;100735.53;5004798;28;20061;-73
2022/03/07 10:04:11;;;;;;;10.02;6.22;;;;;;;1.05;79.18;100737.19;4999608;28;20541;-73
2022/03/07 10:06:37;;;;;;;12.40;9.80;;;;;;;1.50;78.02;100741.69;4989379;28;20075;-74
2022/03/07 10:09:04;;;;;;;13.65;6.57;;;;;;;1.16;76.39;100735.97;5006650;28;20087;-73
2022/03/07 10:11:31;;;;;;;11.77;6.93;;;;;;;0.77;77.64;100736.00;5008906;28;20439;-74
2022/03/07 10:14:04;;;;;;;9.98;6.82;;;;;;;1.48;76.44;100729.59;5009923;28;20182;-75
2022/03/07 10:16:41;;;;;;;8.25;6.15;;;;;;;1.69;78.21;100728.72;5010256;28;20053;-73
2022/03/07 10:19:09;;;;;;;12.18;7.13;;;;;;;1.66;76.79;100726.88;5010856;28;20052;-74
2022/03/07 10:21:35;;;;;;;11.95;8.57;;;;;;;1.96;76.70;100725.44;5008432;28;20046;-74
2022/03/07 10:24:00;;;;;;;12.82;10.18;;;;;;;1.88;76.89;100713.09;5011066;28;20530;-75
2022/03/07 10:26:33;;;;;;;14.27;9.15;;;;;;;1.80;78.22;100724.84;5007745;28;20557;-74
2022/03/07 10:28:59;;;;;;;9.80;6.68;;;;;;;2.52;74.92;100729.34;5006644;28;20038;-74
2022/03/07 10:31:26;;;;;;;17.70;8.43;;;;;;;2.92;73.16;100716.13;5008638;28;20438;-78
2022/03/07 10:34:03;;;;;;;15.63;10.10;;;;;;;3.09;73.46;100711.56;5008418;28;20073;-78
2022/03/07 10:36:39;;;;;;;27.73;8.82;;;;;;;3.03;73.38;100716.53;5009185;28;20042;-74
2022/03/07 10:39:07;;;;;;;8.55;6.30;;;;;;;3.22;74.13;100714.56;5008622;28;20149;-71
2022/03/07 10:41:44;;;;;;;11.60;9.27;;;;;;;3.39;72.38;100705.66;5010445;28;20104;-74
2022/03/07 10:44:22;;;;;;;21.02;11.07;;;;;;;3.17;72.17;100707.50;5010868;28;20037;-71
2022/03/07 10:46:47;;;;;;;13.90;7.68;;;;;;;3.14;71.46;100714.31;5008268;28;20042;-73
2022/03/07 10:49:16;;;;;;;27.73;18.60;;;;;;;3.15;72.87;100709.16;5008878;28;20607;-74
2022/03/07 10:51:51;;;;;;;14.05;11.25;;;;;;;3.41;73.15;100706.59;5008769;28;20056;-73
2022/03/07 10:54:19;;;;;;;18.95;10.10;;;;;;;3.12;70.74;100693.50;5008327;28;20037;-73
2022/03/07 10:56:55;;;;;;;22.05;9.20;;;;;;;3.52;72.62;100697.47;5009855;28;20133;-73
2022/03/07 10:59:28;;;;;;;13.85;9.82;;;;;;;3.77;70.71;100695.69;5007189;28;20042;-73
2022/03/07 11:02:06;;;;;;;8.02;5.65;;;;;;;3.72;68.20;100692.03;5007261;28;20501;-73
2022/03/07 11:04:34;;;;;;;16.40;10.13;;;;;;;3.96;69.49;100691.94;5005968;28;20066;-73
2022/03/07 11:06:59;;;;;;;10.65;8.10;;;;;;;3.87;68.00;100684.75;5006048;28;20056;-73
2022/03/07 11:09:27;;;;;;;13.70;8.35;;;;;;;3.97;68.02;100670.31;5006453;28;20065;-73
2022/03/07 11:11:53;;;;;;;13.50;8.38;;;;;;;3.90;67.94;100663.19;5005476;28;20037;-73
2022/03/07 11:14:19;;;;;;;14.52;9.32;;;;;;;4.09;68.00;100668.09;5004115;28;20045;-73